createdAt,value
2019-04-23T00:02:44.651Z,3.87
2019-04-23T00:11:05.848Z,3.50
2019-04-23T00:15:07.576Z,3.60
2019-04-23T00:19:15.220Z,4.92
2019-04-23T00:23:16.435Z,3.70
2019-04-23T00:27:35.805Z,3.65
2019-04-23T00:31:40.882Z,3.33
2019-04-23T00:35:43.402Z,3.45
2019-04-23T00:48:02.020Z,5.58
2019-04-23T00:52:14.497Z,5.42
2019-04-23T01:04:42.128Z,3.80
2019-04-23T01:08:45.292Z,5.50
2019-04-23T01:12:51.652Z,6.25
2019-04-23T01:17:02.799Z,5.85
2019-04-23T01:20:54.274Z,6.65
2019-04-23T01:25:37.719Z,6.33
2019-04-23T01:30:08.399Z,6.58
2019-04-23T01:34:11.028Z,4.97
2019-04-23T01:38:11.590Z,5.92
2019-04-23T01:42:29.010Z,6.33
2019-04-23T01:46:28.705Z,6.30
2019-04-23T01:50:37.383Z,6.60
2019-04-23T01:54:48.399Z,6.45
2019-04-23T01:59:05.156Z,5.05
2019-04-23T02:03:04.353Z,4.17
2019-04-23T02:07:06.391Z,4.85
2019-04-23T02:11:29.847Z,6.15
2019-04-23T02:15:26.406Z,6.80
2019-04-23T02:19:33.333Z,4.60
2019-04-23T02:23:50.762Z,6.65
2019-04-23T02:32:09.319Z,7.45
2019-04-23T02:48:49.912Z,6.05
2019-04-23T02:52:48.990Z,7.67
2019-04-23T02:56:51.079Z,5.42
2019-04-23T03:09:23.659Z,9.20
2019-04-23T03:18:06.718Z,7.27
2019-04-23T03:32:30.184Z,8.80
2019-04-23T03:43:06.780Z,6.87
2019-04-23T03:47:20.682Z,8.20
2019-04-23T03:55:45.454Z,7.83
2019-04-23T04:08:07.971Z,4.90
2019-04-23T04:12:03.772Z,4.70
2019-04-23T04:20:29.042Z,8.13
2019-04-23T04:24:27.679Z,8.10
2019-04-23T04:28:44.507Z,7.37
2019-04-23T04:32:46.940Z,8.00
2019-04-23T04:53:38.364Z,7.08
2019-04-23T04:57:37.219Z,6.10
2019-04-23T05:01:28.852Z,9.55
2019-04-23T05:10:05.870Z,6.97
2019-04-23T05:14:00.039Z,9.93
2019-04-23T05:18:34.160Z,10.10
2019-04-23T05:22:33.696Z,10.35
2019-04-23T05:26:27.041Z,10.32
2019-04-23T05:30:44.627Z,11.22
2019-04-23T05:34:50.458Z,11.12
2019-04-23T05:39:02.043Z,11.73
2019-04-23T05:47:19.132Z,13.78
2019-04-23T05:51:17.962Z,10.60
2019-04-23T05:55:19.039Z,11.30
2019-04-23T05:59:30.018Z,10.88
2019-04-23T06:03:41.950Z,10.20
2019-04-23T06:07:47.426Z,10.43
2019-04-23T06:11:57.204Z,10.55
2019-04-23T06:16:05.047Z,12.28
2019-04-23T06:20:09.411Z,10.72
2019-04-23T06:24:24.933Z,10.13
2019-04-23T06:28:46.797Z,12.07
2019-04-23T06:32:32.961Z,11.55
2019-04-23T06:36:37.103Z,15.18
2019-04-23T06:40:47.384Z,15.60
2019-04-23T06:44:56.119Z,12.75
2019-04-23T06:49:02.121Z,11.63
2019-04-23T06:53:04.565Z,10.45
2019-04-23T06:57:17.875Z,13.20
2019-04-23T07:01:22.234Z,11.53
2019-04-23T07:06:05.018Z,11.88
2019-04-23T07:09:57.895Z,25.48
2019-04-23T07:13:58.822Z,36.00
2019-04-23T07:18:07.559Z,11.93
2019-04-23T07:30:33.314Z,23.50
2019-04-23T07:34:52.651Z,17.42
2019-04-23T07:43:23.510Z,14.83
2019-04-23T07:48:01.550Z,14.33
2019-04-23T07:52:05.669Z,30.97
2019-04-23T07:56:11.592Z,14.40
2019-04-23T08:00:18.326Z,19.12
2019-04-23T08:04:29.308Z,11.53
2019-04-23T08:08:26.947Z,14.10
2019-04-23T08:12:42.454Z,18.55
2019-04-23T08:16:45.049Z,12.43
2019-04-23T08:25:29.213Z,12.90
2019-04-23T08:29:28.001Z,14.47
2019-04-23T08:33:42.182Z,18.90
2019-04-23T08:42:09.538Z,16.05
2019-04-23T08:46:15.189Z,13.03
2019-04-23T08:50:21.653Z,15.65
2019-04-23T08:54:45.245Z,12.85
2019-04-23T09:02:45.241Z,13.03
2019-04-23T09:06:55.945Z,12.90
2019-04-23T09:15:11.406Z,14.00
2019-04-23T09:19:16.657Z,14.53
2019-04-23T09:23:18.572Z,17.73
2019-04-23T09:27:31.805Z,22.20
2019-04-23T09:36:53.636Z,32.95
2019-04-23T09:45:46.685Z,16.12
2019-04-23T09:49:44.265Z,13.15
2019-04-23T09:54:00.676Z,12.90
2019-04-23T09:58:03.992Z,13.25
2019-04-23T10:01:57.747Z,12.30
2019-04-23T10:05:53.447Z,13.13
2019-04-23T10:09:52.077Z,12.80
2019-04-23T10:13:58.940Z,13.60
2019-04-23T10:18:04.694Z,13.90
2019-04-23T10:22:11.423Z,15.03
2019-04-23T10:26:17.095Z,15.55
2019-04-23T10:30:23.844Z,14.18
2019-04-23T10:34:42.257Z,15.43
2019-04-23T10:38:42.668Z,15.23
2019-04-23T10:42:47.935Z,14.33
2019-04-23T10:48:05.415Z,16.35
2019-04-23T10:52:28.093Z,15.70
2019-04-23T10:56:23.389Z,14.28
2019-04-23T11:00:16.159Z,15.20
2019-04-23T11:04:38.382Z,14.25
2019-04-23T11:13:08.386Z,16.02
2019-04-23T11:17:07.958Z,15.60
2019-04-23T11:25:32.512Z,16.07
2019-04-23T11:29:34.356Z,14.68
2019-04-23T11:33:37.861Z,15.32
2019-04-23T11:41:58.058Z,13.43
2019-04-23T11:51:07.447Z,14.83
2019-04-23T11:58:20.212Z,14.95
2019-04-23T12:02:38.882Z,13.75
2019-04-23T12:06:55.913Z,12.63
2019-04-23T12:11:35.420Z,11.65
2019-04-23T12:15:18.389Z,15.10
2019-04-23T12:19:44.306Z,14.47
2019-04-23T12:23:42.032Z,14.47
2019-04-23T12:27:31.711Z,15.85
2019-04-23T12:31:47.014Z,16.70
2019-04-23T12:35:50.061Z,11.97
2019-04-23T12:44:30.640Z,14.07
2019-04-23T12:52:35.989Z,13.70
2019-04-23T12:56:48.441Z,14.53
2019-04-23T13:00:37.246Z,15.98
2019-04-23T13:04:51.714Z,13.28
2019-04-23T13:09:01.466Z,11.90
2019-04-23T13:17:34.873Z,16.95
2019-04-23T13:21:48.153Z,17.55
2019-04-23T13:25:49.647Z,19.35
2019-04-23T13:29:56.782Z,18.30
2019-04-23T13:33:57.647Z,17.23
2019-04-23T13:38:16.022Z,16.32
2019-04-23T13:42:23.155Z,17.48
2019-04-23T13:46:23.067Z,17.37
2019-04-23T13:54:59.745Z,23.02
2019-04-23T14:02:57.950Z,21.65
2019-04-23T14:11:10.744Z,24.10
2019-04-23T14:15:44.965Z,27.00
2019-04-23T14:19:23.252Z,26.45
2019-04-23T14:27:51.374Z,24.37
2019-04-23T14:32:00.890Z,27.90
2019-04-23T14:36:03.223Z,30.08
2019-04-23T14:40:22.292Z,33.60
2019-04-23T14:44:18.996Z,31.20
2019-04-23T14:48:29.867Z,28.57
2019-04-23T14:52:56.998Z,30.00
2019-04-23T14:57:03.914Z,24.43
2019-04-23T15:01:16.144Z,28.23
2019-04-23T15:05:15.492Z,29.95
2019-04-23T15:09:24.278Z,26.30
2019-04-23T15:13:23.143Z,22.35
2019-04-23T15:17:28.910Z,21.37
2019-04-23T15:26:15.231Z,18.02
2019-04-23T15:29:45.899Z,19.27
2019-04-23T15:34:09.205Z,19.95
2019-04-23T15:38:29.602Z,17.75
2019-04-23T15:42:23.082Z,38.88
2019-04-23T15:46:28.440Z,20.75
2019-04-23T15:54:43.332Z,15.83
2019-04-23T15:59:03.992Z,15.60
2019-04-23T16:02:30.921Z,17.02
2019-04-23T16:06:43.528Z,15.00
2019-04-23T16:11:36.441Z,17.85
2019-04-23T16:15:27.071Z,23.25
2019-04-23T16:19:52.900Z,27.25
2019-04-23T16:24:01.461Z,17.40
2019-04-23T16:28:12.852Z,23.25
2019-04-23T16:32:20.864Z,40.83
2019-04-23T16:36:23.160Z,15.50
2019-04-23T16:40:33.076Z,15.32
2019-04-23T16:44:46.073Z,17.32
2019-04-23T16:53:02.980Z,20.88
2019-04-23T17:05:21.645Z,16.45
2019-04-23T17:09:26.429Z,21.75
2019-04-23T17:13:34.638Z,21.60
2019-04-23T17:17:35.763Z,13.28
2019-04-23T17:21:44.397Z,14.20
2019-04-23T17:25:59.204Z,14.85
2019-04-23T17:30:09.354Z,17.15
2019-04-23T17:34:18.265Z,17.42
2019-04-23T17:38:23.270Z,12.47
2019-04-23T17:42:27.285Z,12.85
2019-04-23T17:46:34.168Z,13.95
2019-04-23T17:55:09.278Z,12.20
2019-04-23T18:03:30.447Z,12.82
2019-04-23T18:07:36.203Z,20.37
2019-04-23T18:11:44.597Z,18.23
2019-04-23T18:15:49.006Z,13.48
2019-04-23T18:20:12.929Z,18.05
2019-04-23T18:24:27.389Z,13.22
2019-04-23T18:28:30.169Z,14.75
2019-04-23T18:37:17.929Z,12.25
2019-04-23T18:41:10.607Z,10.93
2019-04-23T18:45:41.599Z,10.10
2019-04-23T18:49:42.959Z,12.15
2019-04-23T18:53:48.652Z,10.68
2019-04-23T18:57:50.412Z,11.18
2019-04-23T19:02:35.487Z,10.65
2019-04-23T19:06:38.320Z,13.15
2019-04-23T19:11:23.327Z,12.63
2019-04-23T19:19:42.254Z,10.13
2019-04-23T19:31:58.345Z,11.80
2019-04-23T19:40:26.247Z,10.82
2019-04-23T19:44:24.579Z,12.10
2019-04-23T19:48:44.106Z,10.63
2019-04-23T19:53:03.610Z,16.55
2019-04-23T19:57:07.228Z,8.83
2019-04-23T20:01:10.304Z,10.82
2019-04-23T20:05:07.214Z,10.60
2019-04-23T20:09:28.713Z,10.72
2019-04-23T20:13:30.776Z,11.85
2019-04-23T20:21:42.716Z,12.03
2019-04-23T20:26:12.501Z,7.97
2019-04-23T20:38:33.557Z,13.40
2019-04-23T20:42:37.362Z,12.45
2019-04-23T20:46:54.258Z,11.43
2019-04-23T20:50:54.054Z,7.78
2019-04-23T20:59:03.505Z,9.68
2019-04-23T21:07:47.079Z,11.35
2019-04-23T21:11:40.431Z,12.37
2019-04-23T21:15:45.713Z,12.18
2019-04-23T21:19:59.487Z,12.00
2019-04-23T21:23:57.100Z,12.65
2019-04-23T21:32:24.889Z,12.33
2019-04-23T21:36:38.801Z,7.20
2019-04-23T21:45:09.063Z,7.70
2019-04-23T21:53:25.980Z,9.53
2019-04-23T21:57:42.062Z,11.28
2019-04-23T22:05:58.652Z,11.05
2019-04-23T22:10:00.512Z,7.80
2019-04-23T22:18:10.401Z,8.80
2019-04-23T22:22:18.358Z,9.70
2019-04-23T22:26:33.520Z,7.53
2019-04-23T22:30:37.127Z,11.12
2019-04-23T22:34:54.228Z,10.30
2019-04-23T22:38:49.186Z,9.23
2019-04-23T22:43:09.100Z,9.65
2019-04-23T22:47:08.846Z,9.83
2019-04-23T22:55:27.634Z,9.95
2019-04-23T23:03:44.144Z,9.98
2019-04-23T23:08:01.521Z,10.72
2019-04-23T23:12:04.365Z,11.20
2019-04-23T23:20:23.934Z,10.70
2019-04-23T23:24:21.515Z,10.65
2019-04-23T23:28:30.728Z,10.35
2019-04-23T23:32:41.002Z,9.95
2019-04-23T23:36:47.851Z,9.85
2019-04-23T23:40:59.037Z,10.20
2019-04-23T23:45:02.149Z,9.75
2019-04-23T23:49:03.192Z,8.55
2019-04-23T23:57:18.347Z,9.35
